createdAt,value
2023-07-03T00:00:17.059Z,1017.85
2023-07-03T00:01:20.175Z,1017.79
2023-07-03T00:02:23.241Z,1017.87
2023-07-03T00:03:26.240Z,1017.89
2023-07-03T00:04:29.389Z,1017.91
2023-07-03T00:05:32.530Z,1017.95
2023-07-03T00:06:33.950Z,1017.91
2023-07-03T00:07:37.011Z,1018.00
2023-07-03T00:08:40.063Z,1017.98
2023-07-03T00:09:43.073Z,1017.95
2023-07-03T00:10:44.669Z,1017.93
2023-07-03T00:11:46.127Z,1017.96
2023-07-03T00:12:49.185Z,1017.85
2023-07-03T00:13:50.590Z,1017.81
2023-07-03T00:14:53.715Z,1017.82
2023-07-03T00:15:56.727Z,1017.84
2023-07-03T00:16:58.149Z,1017.84
2023-07-03T00:18:01.331Z,1017.78
2023-07-03T00:19:02.819Z,1017.80
2023-07-03T00:20:04.220Z,1017.86
2023-07-03T00:21:05.676Z,1017.85
2023-07-03T00:22:07.088Z,1017.85
2023-07-03T00:23:08.494Z,1017.81
2023-07-03T00:24:09.963Z,1017.83
2023-07-03T00:25:11.380Z,1017.88
2023-07-03T00:26:12.806Z,1017.82
2023-07-03T00:27:15.830Z,1017.89
2023-07-03T00:28:17.238Z,1017.93
2023-07-03T00:29:20.314Z,1017.91
2023-07-03T00:30:23.324Z,1017.98
2023-07-03T00:31:26.468Z,1017.95
2023-07-03T00:32:29.616Z,1017.99
2023-07-03T00:33:31.028Z,1018.02
2023-07-03T00:34:34.081Z,1018.02
2023-07-03T00:35:37.134Z,1017.99
2023-07-03T00:39:38.349Z,1018.02
2023-07-03T00:40:39.769Z,1017.89
2023-07-03T00:41:41.179Z,1017.96
2023-07-03T00:42:44.196Z,1017.94
2023-07-03T00:43:47.219Z,1017.88
2023-07-03T00:44:48.629Z,1017.83
2023-07-03T00:45:51.931Z,1017.85
2023-07-03T00:46:53.714Z,1017.79
2023-07-03T00:47:56.881Z,1017.90
2023-07-03T00:48:58.320Z,1017.86
2023-07-03T00:49:59.731Z,1017.77
2023-07-03T00:51:02.795Z,1017.85
2023-07-03T00:52:04.212Z,1017.81
2023-07-03T00:53:07.277Z,1017.78
2023-07-03T00:54:08.696Z,1017.79
2023-07-03T00:55:10.104Z,1017.77
2023-07-03T00:56:11.527Z,1017.82
2023-07-03T00:57:14.594Z,1017.75
2023-07-03T00:58:17.695Z,1017.79
2023-07-03T00:59:20.763Z,1017.79
2023-07-03T01:00:23.779Z,1017.83
2023-07-03T01:01:25.283Z,1017.81
2023-07-03T01:02:26.752Z,1017.84
2023-07-03T01:03:29.931Z,1017.85
2023-07-03T01:04:32.951Z,1017.82
2023-07-03T01:05:34.592Z,1017.80
2023-07-03T01:06:36.035Z,1017.81
2023-07-03T01:07:39.051Z,1017.76
2023-07-03T01:08:42.068Z,1017.81
2023-07-03T01:09:45.079Z,1017.86
2023-07-03T01:10:46.495Z,1017.81
2023-07-03T01:11:47.889Z,1017.86
2023-07-03T01:12:51.009Z,1017.84
2023-07-03T01:13:54.004Z,1017.72
2023-07-03T01:14:57.056Z,1017.80
2023-07-03T01:15:58.524Z,1017.81
2023-07-03T01:17:01.588Z,1017.73
2023-07-03T01:18:04.588Z,1017.83
2023-07-03T01:19:06.001Z,1017.77
2023-07-03T01:20:07.497Z,1017.80
2023-07-03T01:21:10.535Z,1017.76
2023-07-03T01:22:13.543Z,1017.74
2023-07-03T01:23:14.972Z,1017.79
2023-07-03T01:24:18.032Z,1017.90
2023-07-03T01:25:19.434Z,1017.85
2023-07-03T01:26:22.436Z,1017.89
2023-07-03T01:27:23.908Z,1017.94
2023-07-03T01:28:26.956Z,1017.84
2023-07-03T01:29:29.966Z,1017.88
2023-07-03T01:30:31.424Z,1017.84
2023-07-03T01:31:34.492Z,1017.83
2023-07-03T01:32:36.860Z,1017.76
2023-07-03T01:33:38.286Z,1017.76
2023-07-03T01:34:39.686Z,1017.76
2023-07-03T01:35:41.100Z,1017.71
2023-07-03T01:36:44.229Z,1017.73
2023-07-03T01:37:45.629Z,1017.67
2023-07-03T01:38:48.691Z,1017.64
2023-07-03T01:39:50.145Z,1017.70
2023-07-03T01:40:53.143Z,1017.65
2023-07-03T01:41:54.552Z,1017.68
2023-07-03T01:42:57.552Z,1017.64
2023-07-03T01:43:59.014Z,1017.68
2023-07-03T01:45:02.141Z,1017.71
2023-07-03T01:46:05.216Z,1017.66
2023-07-03T01:47:06.616Z,1017.74
2023-07-03T01:48:08.082Z,1017.73
2023-07-03T01:49:11.100Z,1017.73
2023-07-03T01:50:12.522Z,1017.70
2023-07-03T01:51:15.535Z,1017.68
2023-07-03T01:52:18.609Z,1017.66
2023-07-03T01:53:19.998Z,1017.68
2023-07-03T01:54:23.060Z,1017.61
2023-07-03T01:55:26.063Z,1017.63
2023-07-03T01:56:29.119Z,1017.59
2023-07-03T01:57:32.184Z,1017.50
2023-07-03T01:58:35.184Z,1017.60
2023-07-03T01:59:36.583Z,1017.52
2023-07-03T02:00:37.991Z,1017.48
2023-07-03T02:01:39.515Z,1017.54
2023-07-03T02:02:42.694Z,1017.53
2023-07-03T02:03:44.177Z,1017.56
2023-07-03T02:04:47.297Z,1017.61
2023-07-03T02:05:50.531Z,1017.59
2023-07-03T02:06:52.124Z,1017.53
2023-07-03T02:07:53.580Z,1017.41
2023-07-03T02:08:54.976Z,1017.46
2023-07-03T02:09:56.385Z,1017.44
2023-07-03T02:10:59.449Z,1017.39
2023-07-03T02:12:00.850Z,1017.47
2023-07-03T02:13:03.908Z,1017.50
2023-07-03T02:14:06.906Z,1017.39
2023-07-03T02:15:09.916Z,1017.46
2023-07-03T02:16:12.959Z,1017.40
2023-07-03T02:17:16.019Z,1017.46
2023-07-03T02:18:17.420Z,1017.46
2023-07-03T02:19:20.430Z,1017.41
2023-07-03T02:20:23.431Z,1017.46
2023-07-03T02:21:24.843Z,1017.42
2023-07-03T02:22:26.247Z,1017.44
2023-07-03T02:23:27.648Z,1017.53
2023-07-03T02:24:29.100Z,1017.45
2023-07-03T02:25:32.149Z,1017.46
2023-07-03T02:26:33.560Z,1017.50
2023-07-03T02:27:36.615Z,1017.53
2023-07-03T02:28:39.672Z,1017.42
2023-07-03T02:29:42.673Z,1017.50
2023-07-03T02:30:44.111Z,1017.50
2023-07-03T02:31:45.612Z,1017.48
2023-07-03T02:32:47.068Z,1017.46
2023-07-03T02:33:50.098Z,1017.53
2023-07-03T02:34:51.488Z,1017.50
2023-07-03T02:35:54.505Z,1017.50
2023-07-03T02:36:57.575Z,1017.60
2023-07-03T02:37:59.018Z,1017.53
2023-07-03T02:39:00.426Z,1017.48
2023-07-03T02:40:01.916Z,1017.53
2023-07-03T02:41:03.357Z,1017.47
2023-07-03T02:42:06.383Z,1017.53
2023-07-03T02:43:09.377Z,1017.51
2023-07-03T02:44:10.769Z,1017.52
2023-07-03T02:45:12.187Z,1017.48
2023-07-03T02:46:13.638Z,1017.52
2023-07-03T02:47:16.731Z,1017.51
2023-07-03T02:48:19.764Z,1017.55
2023-07-03T02:49:21.332Z,1017.48
2023-07-03T02:50:24.396Z,1017.48
2023-07-03T02:51:25.920Z,1017.48
2023-07-03T02:52:28.923Z,1017.45
2023-07-03T02:53:31.924Z,1017.53
2023-07-03T02:54:33.330Z,1017.56
2023-07-03T02:55:36.392Z,1017.55
2023-07-03T02:56:39.456Z,1017.52
2023-07-03T02:57:42.447Z,1017.50
2023-07-03T02:58:45.445Z,1017.44
2023-07-03T02:59:46.856Z,1017.48
2023-07-03T03:00:49.898Z,1017.47
2023-07-03T03:01:51.307Z,1017.50
2023-07-03T03:02:52.816Z,1017.47
2023-07-03T03:03:54.292Z,1017.45
2023-07-03T03:04:55.779Z,1017.39
2023-07-03T03:05:57.206Z,1017.35
2023-07-03T03:07:00.221Z,1017.43
2023-07-03T03:08:03.262Z,1017.47
2023-07-03T03:09:06.399Z,1017.38
2023-07-03T03:10:07.847Z,1017.44
2023-07-03T03:11:10.849Z,1017.45
2023-07-03T03:12:12.250Z,1017.45
2023-07-03T03:13:13.732Z,1017.37
2023-07-03T03:14:15.123Z,1017.45
2023-07-03T03:15:16.538Z,1017.36
2023-07-03T03:16:19.601Z,1017.39
2023-07-03T03:17:21.029Z,1017.47
2023-07-03T03:18:22.428Z,1017.47
2023-07-03T03:19:23.842Z,1017.46
2023-07-03T03:20:25.250Z,1017.43
2023-07-03T03:21:26.729Z,1017.55
2023-07-03T03:22:29.802Z,1017.56
2023-07-03T03:23:31.282Z,1017.53
2023-07-03T03:24:34.402Z,1017.55
2023-07-03T03:25:37.423Z,1017.53
2023-07-03T03:26:38.933Z,1017.64
2023-07-03T03:27:40.329Z,1017.56
2023-07-03T03:28:43.332Z,1017.56
2023-07-03T03:29:44.762Z,1017.52
2023-07-03T03:30:47.880Z,1017.51
2023-07-03T03:31:49.380Z,1017.49
2023-07-03T03:32:50.808Z,1017.54
2023-07-03T03:33:53.810Z,1017.59
2023-07-03T03:34:55.214Z,1017.49
2023-07-03T03:35:58.214Z,1017.55
2023-07-03T03:37:01.279Z,1017.55
2023-07-03T03:38:04.399Z,1017.55
2023-07-03T03:39:07.407Z,1017.61
2023-07-03T03:40:10.404Z,1017.60
2023-07-03T03:41:13.407Z,1017.62
2023-07-03T03:42:16.408Z,1017.60
2023-07-03T03:43:19.411Z,1017.58
2023-07-03T03:44:20.866Z,1017.56
2023-07-03T03:45:22.273Z,1017.53
2023-07-03T03:46:23.773Z,1017.59
2023-07-03T03:47:26.905Z,1017.45
2023-07-03T03:48:28.531Z,1017.54
2023-07-03T03:49:31.666Z,1017.44
2023-07-03T03:50:34.658Z,1017.35
2023-07-03T03:51:37.664Z,1017.44
2023-07-03T03:52:39.109Z,1017.41
2023-07-03T03:53:40.558Z,1017.47
2023-07-03T03:54:41.966Z,1017.46
2023-07-03T03:55:43.371Z,1017.46
2023-07-03T03:56:46.483Z,1017.49
2023-07-03T03:57:49.550Z,1017.39
2023-07-03T03:58:52.622Z,1017.46
2023-07-03T03:59:55.691Z,1017.46
2023-07-03T04:00:58.702Z,1017.43
2023-07-03T04:02:01.907Z,1017.51
2023-07-03T04:03:04.864Z,1017.44
2023-07-03T04:04:07.967Z,1017.45
2023-07-03T04:05:09.432Z,1017.45
2023-07-03T04:06:10.844Z,1017.49
2023-07-03T04:07:12.255Z,1017.53
2023-07-03T04:08:15.327Z,1017.53
2023-07-03T04:09:16.726Z,1017.51
2023-07-03T04:10:19.793Z,1017.46
2023-07-03T04:11:22.786Z,1017.48
2023-07-03T04:12:25.821Z,1017.55
2023-07-03T04:13:27.293Z,1017.43
2023-07-03T04:14:30.411Z,1017.48
2023-07-03T04:15:31.860Z,1017.49
2023-07-03T04:16:34.934Z,1017.41
2023-07-03T04:17:37.998Z,1017.42
2023-07-03T04:18:41.142Z,1017.47
2023-07-03T04:19:42.598Z,1017.47
2023-07-03T04:20:45.601Z,1017.50
2023-07-03T04:21:48.675Z,1017.53
2023-07-03T04:22:51.722Z,1017.50
2023-07-03T04:23:54.770Z,1017.56
2023-07-03T04:24:56.171Z,1017.48
2023-07-03T04:25:59.184Z,1017.55
2023-07-03T04:27:00.582Z,1017.53
2023-07-03T04:28:03.586Z,1017.55
2023-07-03T04:29:06.639Z,1017.60
2023-07-03T04:30:09.701Z,1017.58
2023-07-03T04:31:12.828Z,1017.57
2023-07-03T04:32:15.914Z,1017.55
2023-07-03T04:33:17.394Z,1017.49
2023-07-03T04:34:20.397Z,1017.62
2023-07-03T04:35:21.816Z,1017.63
2023-07-03T04:36:23.256Z,1017.51
2023-07-03T04:37:24.726Z,1017.53
2023-07-03T04:38:26.149Z,1017.60
2023-07-03T04:39:27.611Z,1017.53
2023-07-03T04:40:30.618Z,1017.55
2023-07-03T04:41:31.472Z,1017.57
2023-07-03T04:42:32.871Z,1017.57
2023-07-03T04:43:34.281Z,1017.56
2023-07-03T04:44:37.378Z,1017.59
2023-07-03T04:45:40.461Z,1017.65
2023-07-03T04:46:41.995Z,1017.55
2023-07-03T04:47:45.220Z,1017.55
2023-07-03T04:48:46.679Z,1017.55
2023-07-03T04:49:49.677Z,1017.61
2023-07-03T04:50:51.220Z,1017.62
2023-07-03T04:51:54.282Z,1017.59
2023-07-03T04:52:59.262Z,1017.63
2023-07-03T04:54:01.346Z,1017.58
2023-07-03T04:55:04.368Z,1017.58
2023-07-03T04:56:07.434Z,1017.57
2023-07-03T04:57:10.444Z,1017.56
2023-07-03T04:58:13.467Z,1017.54
2023-07-03T04:59:16.521Z,1017.66
2023-07-03T05:00:19.519Z,1017.57
2023-07-03T05:01:20.944Z,1017.63
2023-07-03T05:02:24.021Z,1017.69
2023-07-03T05:03:27.049Z,1017.59
2023-07-03T05:04:30.076Z,1017.67
2023-07-03T05:05:33.083Z,1017.59
2023-07-03T05:06:36.081Z,1017.63
2023-07-03T05:07:39.090Z,1017.69
2023-07-03T05:08:42.251Z,1017.65
2023-07-03T05:09:43.660Z,1017.66
2023-07-03T05:10:45.070Z,1017.67
2023-07-03T05:11:48.138Z,1017.71
2023-07-03T05:12:49.548Z,1017.73
2023-07-03T05:13:51.071Z,1017.66
2023-07-03T05:14:54.188Z,1017.72
2023-07-03T05:15:57.259Z,1017.76
2023-07-03T05:16:58.706Z,1017.71
2023-07-03T05:18:01.730Z,1017.76
2023-07-03T05:19:03.146Z,1017.72
2023-07-03T05:20:06.144Z,1017.79
2023-07-03T05:21:09.218Z,1017.76
2023-07-03T05:22:10.614Z,1017.81
2023-07-03T05:23:12.018Z,1017.69
2023-07-03T05:24:15.075Z,1017.81
2023-07-03T05:25:16.482Z,1017.74
2023-07-03T05:26:17.963Z,1017.73
2023-07-03T05:27:20.964Z,1017.80
2023-07-03T05:28:22.363Z,1017.71
2023-07-03T05:29:25.416Z,1017.80
2023-07-03T05:30:26.930Z,1017.73
2023-07-03T05:31:30.086Z,1017.80
2023-07-03T05:32:31.615Z,1017.88
2023-07-03T05:33:33.043Z,1017.79
2023-07-03T05:34:36.136Z,1017.84
2023-07-03T05:35:45.483Z,1017.89
2023-07-03T05:36:41.662Z,1017.84
2023-07-03T05:37:43.062Z,1017.86
2023-07-03T05:38:44.513Z,1017.94
2023-07-03T05:39:47.639Z,1017.90
2023-07-03T05:40:48.993Z,1017.86
2023-07-03T05:41:50.397Z,1017.91
2023-07-03T05:42:53.452Z,1017.81
2023-07-03T05:43:54.864Z,1017.84
2023-07-03T05:44:56.269Z,1017.91
2023-07-03T05:45:57.742Z,1017.83
2023-07-03T05:46:59.159Z,1017.83
2023-07-03T05:48:00.716Z,1017.84
2023-07-03T05:49:03.726Z,1017.81
2023-07-03T05:50:06.788Z,1017.79
2023-07-03T05:51:09.840Z,1017.83
2023-07-03T05:52:12.852Z,1017.82
2023-07-03T05:53:14.260Z,1017.83
2023-07-03T05:54:15.791Z,1017.80
2023-07-03T05:55:17.241Z,1017.87
2023-07-03T05:56:18.645Z,1017.85
2023-07-03T05:57:20.053Z,1017.80
2023-07-03T05:58:23.062Z,1017.90
2023-07-03T05:59:26.158Z,1017.90
2023-07-03T06:00:27.541Z,1017.92
2023-07-03T06:01:28.966Z,1017.87
2023-07-03T06:02:32.170Z,1017.97
2023-07-03T06:03:33.629Z,1017.87
2023-07-03T06:04:35.054Z,1017.95
2023-07-03T06:05:38.171Z,1017.91
2023-07-03T06:06:41.179Z,1017.92
2023-07-03T06:07:42.649Z,1017.82
2023-07-03T06:08:44.058Z,1017.86
2023-07-03T06:09:45.450Z,1017.97
2023-07-03T06:10:48.551Z,1017.86
2023-07-03T06:11:50.013Z,1017.92
2023-07-03T06:12:51.406Z,1017.97
2023-07-03T06:13:54.428Z,1017.93
2023-07-03T06:14:55.826Z,1017.97
2023-07-03T06:15:58.874Z,1017.91
2023-07-03T06:17:00.453Z,1017.97
2023-07-03T06:18:03.548Z,1018.02
2023-07-03T06:19:06.588Z,1017.95
2023-07-03T06:20:07.994Z,1018.07
2023-07-03T06:21:09.465Z,1018.08
2023-07-03T06:22:12.533Z,1018.04
2023-07-03T06:23:15.527Z,1018.00
2023-07-03T06:24:16.938Z,1018.14
2023-07-03T06:25:18.368Z,1018.13
2023-07-03T06:26:21.404Z,1018.18
2023-07-03T06:27:22.814Z,1018.14
2023-07-03T06:28:25.872Z,1018.16
2023-07-03T06:29:28.890Z,1018.23
2023-07-03T06:30:30.437Z,1018.25
2023-07-03T06:31:33.546Z,1018.23
2023-07-03T06:32:36.763Z,1018.20
2023-07-03T06:33:38.178Z,1018.25
2023-07-03T06:34:39.594Z,1018.22
2023-07-03T06:35:42.730Z,1018.25
2023-07-03T06:36:44.122Z,1018.34
2023-07-03T06:37:47.117Z,1018.32
2023-07-03T06:38:50.122Z,1018.28
2023-07-03T06:39:53.196Z,1018.34
2023-07-03T06:40:56.245Z,1018.33
2023-07-03T06:41:59.252Z,1018.40
2023-07-03T06:43:02.372Z,1018.39
2023-07-03T06:44:05.403Z,1018.41
2023-07-03T06:45:08.436Z,1018.41
2023-07-03T06:46:09.968Z,1018.40
2023-07-03T06:47:12.904Z,1018.42
2023-07-03T06:48:15.950Z,1018.47
2023-07-03T06:49:17.350Z,1018.46
2023-07-03T06:50:20.409Z,1018.54
2023-07-03T06:51:23.474Z,1018.44
2023-07-03T06:52:24.930Z,1018.51
2023-07-03T06:53:28.031Z,1018.54
2023-07-03T06:54:31.044Z,1018.52
2023-07-03T06:55:34.144Z,1018.50
2023-07-03T06:56:35.551Z,1018.49
2023-07-03T06:57:37.027Z,1018.50
2023-07-03T06:58:40.081Z,1018.50
2023-07-03T06:59:41.612Z,1018.45
2023-07-03T07:00:44.605Z,1018.42
2023-07-03T07:01:46.092Z,1018.50
2023-07-03T07:02:47.546Z,1018.45
2023-07-03T07:03:49.058Z,1018.47
2023-07-03T07:04:50.556Z,1018.52
2023-07-03T07:05:52.641Z,1018.42
2023-07-03T07:06:55.904Z,1018.44
2023-07-03T07:07:57.361Z,1018.46
2023-07-03T07:09:00.476Z,1018.49
2023-07-03T07:10:03.495Z,1018.46
2023-07-03T07:11:06.498Z,1018.56
2023-07-03T07:12:09.501Z,1018.54
2023-07-03T07:13:12.567Z,1018.46
2023-07-03T07:14:14.044Z,1018.43
2023-07-03T07:15:15.446Z,1018.55
2023-07-03T07:16:18.459Z,1018.52
2023-07-03T07:17:21.586Z,1018.58
2023-07-03T07:18:24.639Z,1018.62
2023-07-03T07:19:26.076Z,1018.61
2023-07-03T07:20:27.522Z,1018.56
2023-07-03T07:21:28.923Z,1018.57
2023-07-03T07:22:30.331Z,1018.62
2023-07-03T07:23:33.382Z,1018.60
2023-07-03T07:24:36.436Z,1018.53
2023-07-03T07:25:37.844Z,1018.51
2023-07-03T07:26:40.968Z,1018.57
2023-07-03T07:27:44.020Z,1018.50
2023-07-03T07:28:45.502Z,1018.55
2023-07-03T07:29:48.628Z,1018.53
2023-07-03T07:30:50.123Z,1018.53
2023-07-03T07:31:52.106Z,1018.60
2023-07-03T07:32:55.265Z,1018.56
2023-07-03T07:33:56.634Z,1018.62
2023-07-03T07:34:59.700Z,1018.63
2023-07-03T07:36:02.769Z,1018.57
2023-07-03T07:37:04.239Z,1018.54
2023-07-03T07:38:05.717Z,1018.63
2023-07-03T07:39:08.805Z,1018.63
2023-07-03T07:40:11.881Z,1018.63
2023-07-03T07:41:13.279Z,1018.60
2023-07-03T07:42:14.690Z,1018.70
2023-07-03T07:43:16.095Z,1018.63
2023-07-03T07:44:17.552Z,1018.63
2023-07-03T07:45:20.614Z,1018.63
2023-07-03T07:46:22.038Z,1018.62
2023-07-03T07:47:25.075Z,1018.59
2023-07-03T07:48:27.819Z,1018.65
2023-07-03T07:49:28.193Z,1018.63
2023-07-03T07:50:31.247Z,1018.60
2023-07-03T07:51:32.657Z,1018.58
2023-07-03T07:52:34.058Z,1018.63
2023-07-03T07:53:35.462Z,1018.61
2023-07-03T07:54:36.873Z,1018.60
2023-07-03T07:55:38.359Z,1018.60
2023-07-03T07:56:41.487Z,1018.64
2023-07-03T07:57:44.562Z,1018.64
2023-07-03T07:58:47.621Z,1018.69
2023-07-03T07:59:50.725Z,1018.71
2023-07-03T08:00:53.786Z,1018.84
2023-07-03T08:01:56.891Z,1018.81
2023-07-03T08:02:59.867Z,1018.80
2023-07-03T08:04:03.184Z,1018.77
2023-07-03T08:05:04.625Z,1018.80
2023-07-03T08:06:07.661Z,1018.85
2023-07-03T08:07:10.727Z,1018.83
2023-07-03T08:08:13.730Z,1018.76
2023-07-03T08:09:15.200Z,1018.84
2023-07-03T08:10:18.200Z,1018.77
2023-07-03T08:11:21.209Z,1018.89
2023-07-03T08:12:22.613Z,1018.87
2023-07-03T08:13:24.011Z,1018.84
2023-07-03T08:14:27.029Z,1018.82
2023-07-03T08:15:28.450Z,1018.83
2023-07-03T08:16:29.908Z,1018.83
2023-07-03T08:17:31.465Z,1018.83
2023-07-03T08:18:34.597Z,1018.78
2023-07-03T08:19:36.159Z,1018.90
2023-07-03T08:20:39.145Z,1018.85
2023-07-03T08:21:42.156Z,1018.89
2023-07-03T08:22:43.564Z,1018.92
2023-07-03T08:23:44.974Z,1018.86
2023-07-03T08:24:46.386Z,1018.90
2023-07-03T08:25:47.779Z,1018.88
2023-07-03T08:26:50.830Z,1018.88
2023-07-03T08:27:53.838Z,1018.88
2023-07-03T08:28:56.844Z,1018.79
2023-07-03T08:29:59.846Z,1018.86
2023-07-03T08:31:01.301Z,1018.90
2023-07-03T08:32:04.529Z,1018.92
2023-07-03T08:33:06.270Z,1019.00
2023-07-03T08:34:07.704Z,1018.91
2023-07-03T08:37:17.166Z,1019.01
2023-07-03T08:38:20.215Z,1018.98
2023-07-03T08:39:23.275Z,1019.03
2023-07-03T08:40:26.288Z,1019.02
2023-07-03T08:41:27.701Z,1019.02
2023-07-03T08:42:29.121Z,1019.02
2023-07-03T08:43:32.128Z,1019.07
2023-07-03T08:44:36.320Z,1019.03
2023-07-03T08:45:39.331Z,1019.04
2023-07-03T08:46:42.390Z,1019.13
2023-07-03T08:47:45.576Z,1019.07
2023-07-03T08:48:47.003Z,1019.02
2023-07-03T08:49:50.002Z,1018.99
2023-07-03T08:50:53.363Z,1019.10
2023-07-03T08:51:56.213Z,1019.09
2023-07-03T08:52:59.266Z,1019.13
2023-07-03T08:54:02.276Z,1019.07
2023-07-03T08:55:05.736Z,1019.04
2023-07-03T08:56:08.749Z,1019.12
2023-07-03T08:57:11.813Z,1019.16
2023-07-03T08:58:13.218Z,1019.11
2023-07-03T08:59:16.284Z,1019.09
2023-07-03T09:00:19.423Z,1019.16
2023-07-03T09:01:20.856Z,1019.10
2023-07-03T09:02:22.531Z,1019.22
2023-07-03T09:03:24.099Z,1019.17
2023-07-03T09:04:25.497Z,1019.19
2023-07-03T09:05:26.979Z,1019.11
2023-07-03T09:06:30.068Z,1019.21
2023-07-03T09:07:31.559Z,1019.21
2023-07-03T09:08:32.971Z,1019.15
2023-07-03T09:09:34.379Z,1019.17
2023-07-03T09:10:35.780Z,1019.17
2023-07-03T09:11:37.291Z,1019.17
2023-07-03T09:12:40.310Z,1019.29
2023-07-03T09:13:41.728Z,1019.24
2023-07-03T09:14:43.191Z,1019.24
2023-07-03T09:15:44.656Z,1019.27
2023-07-03T09:16:46.082Z,1019.28
2023-07-03T09:17:47.542Z,1019.26
2023-07-03T09:18:48.967Z,1019.25
2023-07-03T09:19:50.382Z,1019.38
2023-07-03T09:20:53.525Z,1019.32
2023-07-03T09:21:56.750Z,1019.28
2023-07-03T09:22:58.139Z,1019.38
2023-07-03T09:24:01.270Z,1019.34
2023-07-03T09:25:02.693Z,1019.35
2023-07-03T09:26:06.083Z,1019.22
2023-07-03T09:27:10.383Z,1019.24
2023-07-03T09:28:12.776Z,1019.20
2023-07-03T09:29:14.167Z,1019.23
2023-07-03T09:30:15.585Z,1019.27
2023-07-03T09:31:17.043Z,1019.34
2023-07-03T09:32:20.089Z,1019.33
2023-07-03T09:33:26.088Z,1019.27
2023-07-03T09:34:27.196Z,1019.34
2023-07-03T09:35:30.200Z,1019.23
2023-07-03T09:36:31.619Z,1019.28
2023-07-03T09:37:34.781Z,1019.31
2023-07-03T09:38:36.138Z,1019.21
2023-07-03T09:39:37.580Z,1019.22
2023-07-03T09:40:40.594Z,1019.30
2023-07-03T09:41:42.015Z,1019.24
2023-07-03T09:42:43.412Z,1019.26
2023-07-03T09:43:46.474Z,1019.37
2023-07-03T09:44:47.924Z,1019.27
2023-07-03T09:45:49.578Z,1019.38
2023-07-03T09:46:52.825Z,1019.36
2023-07-03T09:47:56.071Z,1019.34
2023-07-03T09:48:58.176Z,1019.37
2023-07-03T09:49:59.637Z,1019.36
2023-07-03T09:51:07.736Z,1019.29
2023-07-03T09:52:05.672Z,1019.34
2023-07-03T09:53:10.182Z,1019.39
2023-07-03T09:54:11.841Z,1019.39
2023-07-03T09:55:13.246Z,1019.51
2023-07-03T09:56:16.338Z,1019.43
2023-07-03T09:57:19.425Z,1019.40
2023-07-03T09:58:22.427Z,1019.50
2023-07-03T09:59:23.833Z,1019.50
2023-07-03T10:00:26.933Z,1019.47
2023-07-03T10:03:36.488Z,1019.48
2023-07-03T10:06:44.598Z,1019.64
2023-07-03T10:07:46.238Z,1019.56
2023-07-03T10:08:48.164Z,1019.61
2023-07-03T10:11:58.938Z,1019.67
2023-07-03T10:13:00.479Z,1019.64
2023-07-03T10:14:02.001Z,1019.64
2023-07-03T10:15:03.443Z,1019.67
2023-07-03T10:16:04.870Z,1019.72
2023-07-03T10:17:08.086Z,1019.72
2023-07-03T10:18:11.112Z,1019.77
2023-07-03T10:19:12.643Z,1019.72
2023-07-03T10:20:14.055Z,1019.72
2023-07-03T10:21:17.121Z,1019.66
2023-07-03T10:22:18.521Z,1019.74
2023-07-03T10:23:21.577Z,1019.72
2023-07-03T10:24:24.713Z,1019.72
2023-07-03T10:25:26.120Z,1019.67
2023-07-03T10:26:29.169Z,1019.79
2023-07-03T10:27:30.630Z,1019.76
2023-07-03T10:28:33.843Z,1019.75
2023-07-03T10:29:35.265Z,1019.69
2023-07-03T10:30:38.264Z,1019.79
2023-07-03T10:31:42.108Z,1019.76
2023-07-03T10:32:43.746Z,1019.86
2023-07-03T10:33:46.862Z,1019.83
2023-07-03T10:34:48.278Z,1019.86
2023-07-03T10:35:49.912Z,1019.81
2023-07-03T10:36:51.581Z,1019.94
2023-07-03T10:37:54.692Z,1019.88
2023-07-03T10:38:57.703Z,1019.82
2023-07-03T10:40:00.848Z,1019.86
2023-07-03T10:41:03.863Z,1019.93
2023-07-03T10:42:06.878Z,1020.08
2023-07-03T10:43:09.919Z,1020.01
2023-07-03T10:44:11.329Z,1020.00
2023-07-03T10:45:14.380Z,1019.97
2023-07-03T10:46:15.822Z,1020.07
2023-07-03T10:47:19.017Z,1020.07
2023-07-03T10:48:20.478Z,1020.07
2023-07-03T10:49:21.913Z,1020.07
2023-07-03T10:50:25.015Z,1020.09
2023-07-03T10:51:26.418Z,1020.02
2023-07-03T10:52:27.825Z,1020.09
2023-07-03T10:53:29.317Z,1020.15
2023-07-03T10:54:32.377Z,1020.15
2023-07-03T10:55:35.501Z,1020.07
2023-07-03T10:56:38.500Z,1020.04
2023-07-03T10:57:39.915Z,1020.10
2023-07-03T10:58:41.319Z,1020.13
2023-07-03T10:59:44.379Z,1020.06
2023-07-03T11:00:45.820Z,1020.09
2023-07-03T11:01:47.300Z,1019.99
2023-07-03T11:02:50.529Z,1020.12
2023-07-03T11:04:05.766Z,1020.06
2023-07-03T11:04:56.236Z,1020.06
2023-07-03T11:05:57.712Z,1020.09
2023-07-03T11:07:00.782Z,1020.07
2023-07-03T11:08:02.195Z,1020.12
2023-07-03T11:09:03.725Z,1020.10
2023-07-03T11:10:05.281Z,1020.05
2023-07-03T11:11:08.584Z,1020.06
2023-07-03T11:12:11.603Z,1020.07
2023-07-03T11:13:13.088Z,1020.01
2023-07-03T11:14:14.532Z,1020.06
2023-07-03T11:15:17.538Z,1020.08
2023-07-03T11:16:20.685Z,1020.00
2023-07-03T11:17:23.798Z,1019.96
2023-07-03T11:23:39.885Z,1020.05
2023-07-03T11:24:41.315Z,1019.99
